Time;durP1;ratioP1;P1;durP2;ratioP2;P2;SDS_P1;SDS_P2;PMS_P1;PMS_P2;Temp;Humidity;BMP_temperature;BMP_pressure;BME280_temperature;BME280_humidity;BME280_pressure;Samples;Min_cycle;Max_cycle;Signal;HPM_P1;HPM_P2
2021/01/23 00:02:14;;;;;;;7.50;3.80;;;15.00;51.60;;;;;;6279460;22;20317;-80
2021/01/23 00:04:41;;;;;;;7.32;3.50;;;15.00;51.50;;;;;;6289954;22;20030;-80
2021/01/23 00:07:07;;;;;;;7.18;3.90;;;15.00;51.50;;;;;;6279348;22;20042;-80
2021/01/23 00:09:33;;;;;;;5.93;3.85;;;15.00;51.50;;;;;;6290323;22;20039;-80
2021/01/23 00:11:59;;;;;;;7.95;3.72;;;15.00;51.50;;;;;;6279305;22;20038;-80
2021/01/23 00:14:25;;;;;;;5.88;3.58;;;14.90;51.50;;;;;;6279028;22;20015;-80
2021/01/23 00:16:51;;;;;;;6.65;3.80;;;14.90;51.50;;;;;;6289335;22;20026;-81
2021/01/23 00:19:17;;;;;;;7.90;4.28;;;14.90;51.50;;;;;;6289347;22;20011;-80
2021/01/23 00:21:43;;;;;;;8.63;3.83;;;14.90;51.40;;;;;;6290190;22;20019;-80
2021/01/23 00:24:09;;;;;;;8.15;4.28;;;14.90;51.40;;;;;;6279130;22;20092;-80
2021/01/23 00:26:35;;;;;;;7.32;3.75;;;14.90;51.40;;;;;;6279045;22;20324;-80
2021/01/23 00:29:01;;;;;;;5.70;3.58;;;14.90;51.40;;;;;;6289345;22;20016;-80
2021/01/23 00:31:26;;;;;;;8.13;3.88;;;14.90;51.40;;;;;;6289482;22;20011;-80
2021/01/23 00:33:52;;;;;;;7.43;4.30;;;14.90;51.40;;;;;;6289757;22;20042;-80
2021/01/23 00:36:21;;;;;;;8.45;3.63;;;14.90;51.40;;;;;;6279089;22;20020;-80
2021/01/23 00:38:47;;;;;;;8.40;4.50;;;14.90;51.40;;;;;;6289412;22;20016;-80
2021/01/23 00:41:12;;;;;;;7.30;3.83;;;14.90;51.40;;;;;;6278925;22;20012;-81
2021/01/23 00:43:38;;;;;;;7.63;3.83;;;14.90;51.40;;;;;;6289971;22;20027;-80
2021/01/23 00:46:04;;;;;;;7.45;3.90;;;14.90;51.30;;;;;;6289491;22;20046;-81
2021/01/23 00:48:30;;;;;;;8.68;3.53;;;14.90;51.30;;;;;;6289622;22;20015;-80
2021/01/23 00:50:56;;;;;;;8.15;4.15;;;14.90;51.30;;;;;;6278929;22;20011;-80
2021/01/23 00:53:22;;;;;;;7.70;4.60;;;14.90;51.20;;;;;;6289266;22;20023;-80
2021/01/23 00:55:48;;;;;;;7.57;4.38;;;14.90;51.30;;;;;;6262775;22;20014;-79
2021/01/23 00:58:14;;;;;;;8.98;5.00;;;14.80;51.20;;;;;;6288892;22;20316;-79
2021/01/23 01:00:39;;;;;;;9.05;4.00;;;14.80;51.20;;;;;;6288491;22;20023;-80
2021/01/23 01:03:05;;;;;;;5.57;3.80;;;14.80;51.20;;;;;;6288843;22;20451;-80
2021/01/23 01:05:31;;;;;;;8.02;4.75;;;14.80;51.20;;;;;;6278741;22;20012;-80
2021/01/23 01:07:57;;;;;;;7.53;3.72;;;14.80;51.20;;;;;;6262405;22;20074;-80
2021/01/23 01:10:23;;;;;;;8.25;4.13;;;14.80;51.10;;;;;;6289201;22;20095;-80
2021/01/23 01:12:48;;;;;;;6.70;3.85;;;14.80;51.10;;;;;;6288627;22;20019;-80
2021/01/23 01:15:14;;;;;;;7.35;3.88;;;14.80;51.10;;;;;;6262857;22;20077;-81
2021/01/23 01:17:40;;;;;;;7.53;4.50;;;14.80;51.80;;;;;;6289081;22;20018;-81
2021/01/23 01:20:07;;;;;;;9.25;4.43;;;14.80;51.10;;;;;;6288747;22;20073;-80
2021/01/23 01:22:32;;;;;;;7.97;4.00;;;14.80;51.10;;;;;;6289109;22;20031;-80
2021/01/23 01:24:58;;;;;;;6.72;4.30;;;14.80;51.10;;;;;;6289103;22;20452;-80
2021/01/23 01:27:24;;;;;;;7.03;4.65;;;14.80;51.00;;;;;;6283050;22;20016;-80
2021/01/23 01:29:50;;;;;;;9.70;4.50;;;14.80;51.00;;;;;;6278556;22;20312;-80
2021/01/23 01:32:16;;;;;;;7.03;4.20;;;14.80;51.00;;;;;;6288984;22;20023;-80
2021/01/23 01:34:42;;;;;;;6.30;3.42;;;14.80;50.90;;;;;;6279206;22;20054;-80
2021/01/23 01:37:09;;;;;;;7.35;3.83;;;14.80;50.90;;;;;;6289004;22;20035;-80
2021/01/23 01:39:34;;;;;;;9.20;4.70;;;14.80;50.90;;;;;;6288951;22;20027;-81
2021/01/23 01:42:05;;;;;;;7.13;4.30;;;14.80;50.90;;;;;;6288495;22;20020;-80
2021/01/23 01:44:30;;;;;;;7.28;4.55;;;14.80;50.80;;;;;;6288998;22;20420;-80
2021/01/23 01:47:00;;;;;;;7.35;3.83;;;14.80;50.80;;;;;;6279022;22;20078;-81
2021/01/23 01:49:27;;;;;;;5.88;4.18;;;14.80;50.80;;;;;;6288837;22;20064;-80
2021/01/23 01:51:54;;;;;;;9.43;4.90;;;14.80;50.80;;;;;;6262070;22;20015;-80
2021/01/23 01:54:22;;;;;;;6.97;4.43;;;14.80;50.80;;;;;;6288838;22;20012;-79
2021/01/23 01:56:50;;;;;;;11.85;5.32;;;14.80;50.70;;;;;;6288936;22;20039;-80
2021/01/23 01:59:15;;;;;;;7.13;4.47;;;14.80;50.70;;;;;;6288490;22;20279;-80
2021/01/23 02:01:42;;;;;;;7.43;4.63;;;14.80;50.70;;;;;;6288920;22;20020;-80
2021/01/23 02:04:25;;;;;;;7.05;4.45;;;14.70;50.60;;;;;;6261836;22;20041;-80
2021/01/23 02:07:10;;;;;;;9.15;4.68;;;14.70;50.60;;;;;;6288732;22;20019;-80
2021/01/23 02:09:35;;;;;;;7.03;4.68;;;14.70;50.60;;;;;;6262210;22;20024;-80
2021/01/23 02:12:10;;;;;;;9.20;4.40;;;14.70;50.60;;;;;;6288402;22;20061;-80
2021/01/23 02:14:47;;;;;;;8.90;4.90;;;14.80;50.50;;;;;;6288878;22;20039;-80
2021/01/23 02:17:16;;;;;;;6.72;4.45;;;14.80;50.50;;;;;;6288489;22;20022;-80
2021/01/23 02:19:51;;;;;;;8.85;4.95;;;14.70;50.40;;;;;;6279775;22;20011;-80
2021/01/23 02:22:35;;;;;;;6.82;4.60;;;14.70;50.40;;;;;;6290716;22;20012;-80
2021/01/23 02:25:02;;;;;;;6.53;4.50;;;14.70;50.40;;;;;;6263745;22;20074;-80
2021/01/23 02:27:42;;;;;;;6.22;4.82;;;14.70;50.40;;;;;;6284538;22;20479;-80
2021/01/23 02:30:14;;;;;;;7.55;4.45;;;14.70;50.40;;;;;;6264201;22;20077;-80
2021/01/23 02:32:42;;;;;;;7.85;5.10;;;14.70;50.40;;;;;;6290326;22;20023;-80
2021/01/23 02:35:11;;;;;;;6.95;4.65;;;14.70;50.40;;;;;;6290984;22;20090;-80
2021/01/23 02:37:39;;;;;;;8.68;4.90;;;14.70;50.30;;;;;;6264005;22;20016;-80
2021/01/23 02:40:06;;;;;;;7.75;5.03;;;14.70;50.30;;;;;;6290355;22;20012;-80
2021/01/23 02:42:32;;;;;;;7.05;5.38;;;14.70;50.30;;;;;;6280063;22;20344;-81
2021/01/23 02:44:57;;;;;;;5.65;4.70;;;14.70;50.30;;;;;;6280805;22;20031;-80
2021/01/23 02:47:23;;;;;;;7.80;5.20;;;14.70;50.30;;;;;;6290174;22;20039;-80
2021/01/23 02:49:49;;;;;;;7.28;5.38;;;14.70;50.30;;;;;;6289953;22;20424;-81
2021/01/23 02:52:49;;;;;;;8.40;5.32;;;14.70;50.30;;;;;;6263770;22;20015;-80
2021/01/23 02:55:22;;;;;;;7.07;4.93;;;14.70;50.20;;;;;;6290632;22;20034;-80
2021/01/23 02:57:50;;;;;;;10.52;6.15;;;14.70;50.20;;;;;;6290849;22;20016;-81
2021/01/23 03:00:18;;;;;;;7.97;5.15;;;14.70;50.20;;;;;;6263233;22;20030;-80
2021/01/23 03:02:51;;;;;;;8.00;5.70;;;14.70;50.10;;;;;;6253426;22;20074;-80
2021/01/23 03:05:18;;;;;;;7.90;5.55;;;14.70;50.10;;;;;;6290154;22;20016;-80
2021/01/23 03:07:44;;;;;;;6.82;5.35;;;14.70;50.10;;;;;;6263238;22;20328;-80
2021/01/23 03:10:11;;;;;;;7.70;5.88;;;14.60;50.00;;;;;;6262818;22;20083;-80
2021/01/23 03:12:37;;;;;;;7.57;5.00;;;14.70;50.10;;;;;;6290970;22;20012;-80
2021/01/23 03:15:04;;;;;;;9.55;5.63;;;14.70;50.00;;;;;;6289871;22;20015;-80
2021/01/23 03:17:30;;;;;;;7.72;5.68;;;14.60;50.00;;;;;;6289843;22;20027;-80
2021/01/23 03:19:56;;;;;;;12.35;5.80;;;14.70;50.00;;;;;;6263115;22;20012;-81
2021/01/23 03:22:21;;;;;;;7.70;6.05;;;14.60;49.90;;;;;;6290781;22;20015;-80
2021/01/23 03:24:47;;;;;;;7.63;5.70;;;14.70;49.90;;;;;;6280439;22;20019;-80
2021/01/23 03:27:13;;;;;;;10.10;6.20;;;14.70;49.90;;;;;;6284662;22;20046;-80
2021/01/23 03:29:39;;;;;;;10.18;6.28;;;14.60;49.80;;;;;;6263291;22;20424;-80
2021/01/23 03:32:05;;;;;;;7.50;5.63;;;14.70;49.80;;;;;;6289916;22;20020;-81
2021/01/23 03:34:30;;;;;;;8.13;5.82;;;14.60;49.80;;;;;;6289877;22;20046;-80
2021/01/23 03:36:56;;;;;;;8.95;6.10;;;14.60;49.70;;;;;;6253560;22;20015;-81
2021/01/23 03:39:22;;;;;;;7.32;5.53;;;14.60;49.70;;;;;;6262946;22;20459;-80
2021/01/23 03:41:48;;;;;;;9.27;6.03;;;14.60;49.70;;;;;;6289896;22;20086;-80
2021/01/23 03:44:14;;;;;;;8.02;6.10;;;14.60;49.60;;;;;;6289788;22;20011;-80
2021/01/23 03:46:39;;;;;;;8.55;6.28;;;14.60;49.60;;;;;;6289404;22;20012;-80
2021/01/23 03:49:05;;;;;;;8.70;6.13;;;14.60;49.60;;;;;;6289789;22;20011;-80
2021/01/23 03:51:31;;;;;;;6.95;5.65;;;14.60;49.60;;;;;;6279708;22;20083;-80
2021/01/23 03:53:57;;;;;;;8.98;6.55;;;14.60;49.60;;;;;;6279153;22;20054;-80
2021/01/23 03:56:23;;;;;;;7.60;5.90;;;14.60;49.50;;;;;;6262967;22;20023;-80
2021/01/23 03:58:49;;;;;;;8.45;6.05;;;14.60;49.60;;;;;;6279948;22;20092;-80
2021/01/23 04:01:15;;;;;;;7.20;5.75;;;14.60;49.60;;;;;;6289121;22;20082;-80
2021/01/23 04:03:41;;;;;;;10.07;6.40;;;14.70;49.60;;;;;;6262723;22;20024;-80
2021/01/23 04:06:07;;;;;;;11.77;6.65;;;14.60;49.50;;;;;;6289212;22;20019;-81
2021/01/23 04:08:33;;;;;;;9.93;6.22;;;14.60;49.50;;;;;;6290353;22;20023;-81
2021/01/23 04:10:59;;;;;;;9.40;6.65;;;14.60;49.50;;;;;;6280095;22;20016;-80
2021/01/23 04:13:25;;;;;;;8.52;6.03;;;14.60;49.50;;;;;;6262620;22;20018;-80
2021/01/23 04:15:53;;;;;;;8.55;6.10;;;14.60;49.50;;;;;;6289345;22;20016;-80
2021/01/23 04:18:19;;;;;;;8.48;6.13;;;14.60;49.50;;;;;;6262750;22;20023;-81
2021/01/23 04:20:45;;;;;;;9.57;6.05;;;14.60;49.50;;;;;;6262872;22;20011;-80
2021/01/23 04:23:10;;;;;;;7.35;5.45;;;14.60;49.50;;;;;;6279516;22;20035;-80
2021/01/23 04:25:36;;;;;;;8.65;6.00;;;14.60;49.50;;;;;;6289878;22;20038;-81
2021/01/23 04:28:02;;;;;;;7.57;6.15;;;14.60;49.60;;;;;;6279904;22;20413;-80
2021/01/23 04:30:28;;;;;;;10.88;6.53;;;14.60;49.50;;;;;;6289352;22;20035;-80
2021/01/23 04:32:54;;;;;;;8.35;5.93;;;14.60;49.50;;;;;;6262167;22;20316;-80
2021/01/23 04:35:20;;;;;;;9.68;6.43;;;14.60;49.50;;;;;;6278731;22;20012;-80
2021/01/23 04:37:46;;;;;;;9.07;5.88;;;14.60;49.50;;;;;;6289439;22;20094;-80
2021/01/23 04:40:12;;;;;;;7.95;5.82;;;14.60;49.50;;;;;;6289470;22;20038;-81
2021/01/23 04:42:43;;;;;;;7.97;5.95;;;14.60;49.50;;;;;;6288746;22;20320;-80
2021/01/23 04:45:10;;;;;;;12.07;6.03;;;14.60;49.50;;;;;;6262425;22;20049;-80
2021/01/23 04:47:36;;;;;;;8.18;6.25;;;14.60;49.50;;;;;;6262613;22;20077;-80
2021/01/23 04:50:07;;;;;;;10.52;6.85;;;14.60;49.50;;;;;;6289129;22;20015;-80
2021/01/23 04:52:40;;;;;;;8.20;5.68;;;14.60;49.50;;;;;;6288982;22;20092;-80
2021/01/23 04:55:08;;;;;;;7.15;6.07;;;14.60;49.50;;;;;;6278837;22;20023;-80
2021/01/23 04:57:34;;;;;;;8.70;6.13;;;14.60;49.60;;;;;;6289948;22;20145;-81
2021/01/23 05:00:00;;;;;;;8.18;5.63;;;14.60;49.60;;;;;;6288990;22;20027;-80
2021/01/23 05:02:26;;;;;;;8.05;6.15;;;14.60;49.60;;;;;;6289234;22;20011;-81
2021/01/23 05:04:58;;;;;;;8.98;5.60;;;14.60;49.60;;;;;;6288613;22;20029;-80
2021/01/23 05:07:35;;;;;;;8.65;6.22;;;14.60;49.60;;;;;;6288404;22;20489;-80
2021/01/23 05:10:14;;;;;;;9.10;5.65;;;14.60;49.70;;;;;;6288825;22;20036;-77
2021/01/23 05:12:45;;;;;;;8.00;5.78;;;14.60;50.00;;;;;;6278608;22;20020;-80
2021/01/23 05:15:25;;;;;;;10.55;6.00;;;14.60;50.40;;;;;;6288755;22;20036;-82
2021/01/23 05:17:55;;;;;;;17.10;5.10;;;14.70;50.70;;;;;;6262135;22;20012;-74
2021/01/23 05:20:43;;;;;;;10.57;5.20;;;14.70;51.00;;;;;;6288370;22;20015;-81
2021/01/23 05:23:12;;;;;;;6.35;4.75;;;14.70;51.10;;;;;;6252156;22;20030;-78
2021/01/23 05:25:40;;;;;;;7.85;5.20;;;14.80;51.30;;;;;;6289081;22;20008;-84
2021/01/23 05:28:11;;;;;;;10.73;4.68;;;14.80;52.00;;;;;;6251210;22;20019;-87
2021/01/23 05:30:52;;;;;;;10.57;5.50;;;14.90;52.90;;;;;;6288703;22;20019;-84
2021/01/23 05:33:27;;;;;;;14.45;5.97;;;15.00;53.90;;;;;;6289333;22;20073;-85
2021/01/23 05:36:08;;;;;;;8.95;5.03;;;15.00;54.90;;;;;;6251553;22;20420;-87
2021/01/23 05:38:59;;;;;;;9.15;5.00;;;15.00;55.20;;;;;;6252557;22;20020;-87
2021/01/23 05:41:27;;;;;;;10.88;5.68;;;15.20;55.60;;;;;;6251949;22;20012;-86
2021/01/23 05:44:10;;;;;;;16.33;4.80;;;15.20;55.80;;;;;;6228584;22;20008;-79
2021/01/23 05:46:38;;;;;;;;;;;15.20;55.90;;;;;;6226487;22;20023;-88
2021/01/23 05:49:04;;;;;;;11.30;4.15;;;15.30;55.80;;;;;;6288532;22;19919;-83
2021/01/23 05:51:30;;;;;;;9.20;4.45;;;15.40;55.90;;;;;;6226334;22;20098;-85
2021/01/23 05:53:56;;;;;;;10.00;4.60;;;15.40;56.00;;;;;;6253152;22;20463;-84
2021/01/23 05:56:23;;;;;;;8.30;4.30;;;15.50;55.90;;;;;;6228578;22;20282;-85
2021/01/23 05:58:49;;;;;;;9.13;3.88;;;15.50;55.80;;;;;;6228675;22;20424;-80
2021/01/23 06:01:22;;;;;;;6.68;4.00;;;15.50;55.70;;;;;;6280610;22;20470;-83
2021/01/23 06:03:51;;;;;;;8.52;3.65;;;15.60;55.90;;;;;;6227669;22;20012;-82
2021/01/23 06:06:17;;;;;;;7.85;4.00;;;15.60;56.00;;;;;;6253883;22;20011;-82
2021/01/23 06:08:48;;;;;;;10.13;3.45;;;15.70;55.90;;;;;;6253853;22;20031;-82
2021/01/23 06:11:20;;;;;;;8.70;3.13;;;15.70;56.10;;;;;;6227891;22;20012;-83
2021/01/23 06:13:50;;;;;;;10.63;3.67;;;15.80;56.00;;;;;;6253810;22;20015;-83
2021/01/23 06:16:44;;;;;;;9.15;3.38;;;15.80;55.90;;;;;;6253051;22;20118;-77
2021/01/23 06:19:16;;;;;;;9.93;3.63;;;15.90;55.50;;;;;;6290303;22;20401;-79
2021/01/23 06:21:44;;;;;;;12.35;2.90;;;15.90;56.00;;;;;;6290272;22;20022;-77
2021/01/23 06:24:12;;;;;;;10.25;4.65;;;16.00;56.20;;;;;;6290058;22;20015;-83
2021/01/23 06:26:53;;;;;;;11.77;4.45;;;16.10;55.60;;;;;;6260419;22;20022;-82
2021/01/23 06:29:32;;;;;;;9.88;3.97;;;16.10;55.00;;;;;;6279837;22;20083;-81
2021/01/23 06:32:18;;;;;;;12.30;4.53;;;16.10;54.70;;;;;;6263343;22;20007;-83
2021/01/23 06:34:58;;;;;;;6.97;3.85;;;16.10;54.60;;;;;;6253179;22;20470;-83
2021/01/23 06:37:37;;;;;;;7.53;2.85;;;16.10;54.40;;;;;;6227882;22;20103;-81
2021/01/23 06:40:25;;;;;;;9.85;4.03;;;16.10;54.70;;;;;;6253407;22;20098;-86
